Time;durP1;ratioP1;P1;durP2;ratioP2;P2;SDS_P1;SDS_P2;PMS_P1;PMS_P2;Temp;Humidity;BMP_temperature;BMP_pressure;BME280_temperature;BME280_humidity;BME280_pressure;Samples;Min_cycle;Max_cycle;Signal;HPM_P1;HPM_P2
2024/01/13 00:00:08;;;;;;;10.95;5.78;;;-2.10;99.90;;;;;;4927236;29;20031;-86
2024/01/13 00:02:34;;;;;;;10.50;5.75;;;-2.10;99.90;;;;;;4956946;28;20043;-86
2024/01/13 00:05:00;;;;;;;13.00;7.00;;;-2.10;99.90;;;;;;4947082;28;20039;-86
2024/01/13 00:07:25;;;;;;;10.90;5.72;;;-2.10;99.90;;;;;;4938815;28;20058;-87
2024/01/13 00:09:51;;;;;;;10.93;6.43;;;-2.10;99.90;;;;;;4940956;28;20376;-85
2024/01/13 00:12:17;;;;;;;10.85;6.10;;;-2.10;99.90;;;;;;4953636;28;20042;-88
2024/01/13 00:14:43;;;;;;;10.35;5.65;;;-2.10;99.90;;;;;;4933765;28;20504;-87
2024/01/13 00:17:09;;;;;;;9.30;5.53;;;-2.10;99.90;;;;;;4927937;28;20114;-85
2024/01/13 00:19:34;;;;;;;11.90;5.85;;;-2.10;99.90;;;;;;4919233;28;20035;-85
2024/01/13 00:22:00;;;;;;;10.88;6.07;;;-2.00;99.90;;;;;;4936815;28;20035;-86
2024/01/13 00:24:26;;;;;;;12.05;6.53;;;-2.10;99.90;;;;;;4941035;28;20043;-85
2024/01/13 00:26:52;;;;;;;11.68;6.40;;;-2.00;99.90;;;;;;4944660;29;20036;-88
2024/01/13 00:29:18;;;;;;;12.10;6.40;;;-2.00;99.90;;;;;;4947859;28;20114;-86
2024/01/13 00:31:43;;;;;;;10.60;6.00;;;-2.00;99.90;;;;;;4949641;28;20483;-86
2024/01/13 00:34:09;;;;;;;11.90;6.18;;;-2.00;99.90;;;;;;4937608;28;20057;-87
2024/01/13 00:36:35;;;;;;;11.77;6.20;;;-2.00;99.90;;;;;;4933845;28;20032;-86
2024/01/13 00:39:01;;;;;;;10.10;5.88;;;-2.00;99.90;;;;;;4950480;29;20035;-86
2024/01/13 00:41:27;;;;;;;14.57;6.75;;;-2.10;99.90;;;;;;4953405;28;20022;-84
2024/01/13 00:43:53;;;;;;;10.02;5.78;;;-2.10;99.90;;;;;;4966209;28;20527;-88
2024/01/13 00:46:19;;;;;;;12.55;6.72;;;-2.00;99.90;;;;;;4948071;28;20389;-85
2024/01/13 00:48:45;;;;;;;11.60;6.40;;;-2.10;99.90;;;;;;4949686;28;20050;-86
2024/01/13 00:51:11;;;;;;;13.50;7.38;;;-2.10;99.90;;;;;;4944466;28;20031;-87
2024/01/13 00:53:37;;;;;;;13.93;7.75;;;-2.10;99.90;;;;;;4951439;28;20170;-87
2024/01/13 00:56:03;;;;;;;11.15;6.68;;;-2.00;99.90;;;;;;4963173;28;20027;-85
2024/01/13 00:58:29;;;;;;;12.85;7.18;;;-2.10;99.90;;;;;;4965237;28;20034;-86
2024/01/13 01:00:59;;;;;;;13.43;7.18;;;-2.10;99.90;;;;;;4946965;29;20027;-86
2024/01/13 01:03:26;;;;;;;14.68;7.20;;;-2.10;99.90;;;;;;4935000;28;20062;-86
2024/01/13 01:05:53;;;;;;;16.50;8.48;;;-2.10;99.90;;;;;;4929284;29;20035;-84
2024/01/13 01:08:19;;;;;;;13.13;6.95;;;-2.10;99.90;;;;;;4941119;29;20031;-86
2024/01/13 01:10:45;;;;;;;12.25;6.47;;;-2.10;99.90;;;;;;4958763;28;20065;-85
2024/01/13 01:13:11;;;;;;;15.68;7.20;;;-2.10;99.90;;;;;;4929179;28;20439;-85
2024/01/13 01:15:36;;;;;;;13.35;7.28;;;-2.00;99.90;;;;;;4922389;28;20027;-86
2024/01/13 01:18:02;;;;;;;11.88;6.78;;;-2.10;99.90;;;;;;4957078;28;20380;-85
2024/01/13 01:20:28;;;;;;;15.23;7.25;;;-2.00;99.90;;;;;;4945977;28;20492;-86
2024/01/13 01:22:54;;;;;;;13.55;7.32;;;-2.10;99.90;;;;;;4961296;28;21575;-86
2024/01/13 01:25:22;;;;;;;15.18;8.07;;;-2.10;99.90;;;;;;4944990;28;20047;-85
2024/01/13 01:27:48;;;;;;;14.50;7.55;;;-2.00;99.90;;;;;;4945654;28;20058;-85
2024/01/13 01:30:14;;;;;;;15.48;7.50;;;-2.10;99.90;;;;;;4957939;28;20035;-86
2024/01/13 01:32:40;;;;;;;18.13;8.20;;;-2.10;99.90;;;;;;4924746;28;20062;-85
2024/01/13 01:35:08;;;;;;;14.10;7.68;;;-2.10;99.90;;;;;;4925130;28;20035;-86
2024/01/13 01:37:34;;;;;;;14.02;7.68;;;-2.10;99.90;;;;;;4945629;28;20034;-85
2024/01/13 01:40:01;;;;;;;14.65;7.65;;;-2.10;99.90;;;;;;4960738;28;20511;-87
2024/01/13 01:42:27;;;;;;;13.90;7.63;;;-2.10;99.90;;;;;;4939911;28;20070;-87
2024/01/13 01:44:53;;;;;;;12.80;7.00;;;-2.10;99.90;;;;;;4962925;28;20129;-86
2024/01/13 01:47:20;;;;;;;12.63;6.68;;;-2.10;99.90;;;;;;4941633;28;20109;-86
2024/01/13 01:49:46;;;;;;;14.07;7.57;;;-2.10;99.90;;;;;;4944334;28;20046;-85
2024/01/13 01:52:13;;;;;;;13.90;6.88;;;-2.20;99.90;;;;;;4942530;28;20122;-86
2024/01/13 01:54:40;;;;;;;16.85;8.55;;;-2.20;99.90;;;;;;4928413;28;20031;-84
2024/01/13 01:57:09;;;;;;;15.93;7.63;;;-2.10;99.90;;;;;;4943891;28;20035;-86
2024/01/13 01:59:35;;;;;;;14.38;7.80;;;-2.10;99.90;;;;;;4946593;28;20035;-86
2024/01/13 02:02:03;;;;;;;14.30;8.02;;;-2.10;99.90;;;;;;4941510;29;20047;-88
2024/01/13 02:04:29;;;;;;;13.43;7.55;;;-2.10;99.90;;;;;;4941315;29;20031;-88
2024/01/13 02:06:55;;;;;;;14.90;8.18;;;-2.10;99.90;;;;;;4947634;28;20058;-87
2024/01/13 02:09:22;;;;;;;12.25;7.07;;;-2.10;99.90;;;;;;4950034;28;20129;-86
2024/01/13 02:11:48;;;;;;;13.60;7.65;;;-2.20;99.90;;;;;;4957212;28;20042;-85
2024/01/13 02:14:14;;;;;;;13.60;7.25;;;-2.10;99.90;;;;;;4935219;28;20086;-85
2024/01/13 02:16:40;;;;;;;17.15;8.38;;;-2.10;99.90;;;;;;4962973;28;20538;-84
2024/01/13 02:19:06;;;;;;;14.23;8.00;;;-2.10;99.90;;;;;;4957775;28;20492;-86
2024/01/13 02:21:38;;;;;;;13.75;7.85;;;-2.10;99.90;;;;;;4944201;28;20070;-87
2024/01/13 02:24:04;;;;;;;17.63;8.00;;;-2.10;99.90;;;;;;4947333;28;20412;-86
2024/01/13 02:26:34;;;;;;;13.95;7.22;;;-2.10;99.90;;;;;;4928175;28;20035;-86
2024/01/13 02:29:00;;;;;;;17.10;8.70;;;-2.20;99.90;;;;;;4930747;28;20035;-88
2024/01/13 02:31:25;;;;;;;16.17;7.90;;;-2.20;99.90;;;;;;4944774;28;20027;-87
2024/01/13 02:33:51;;;;;;;17.85;8.93;;;-2.20;99.90;;;;;;4946559;28;20035;-85
2024/01/13 02:36:17;;;;;;;15.48;8.48;;;-2.20;99.90;;;;;;4933599;29;20047;-86
2024/01/13 02:38:44;;;;;;;16.55;8.48;;;-2.20;99.90;;;;;;4947679;28;20035;-86
2024/01/13 02:41:09;;;;;;;19.00;8.45;;;-2.20;99.90;;;;;;4940774;28;20031;-86
2024/01/13 02:43:36;;;;;;;18.02;8.20;;;-2.20;99.90;;;;;;4965899;28;20042;-86
2024/01/13 02:46:02;;;;;;;17.55;8.75;;;-2.20;99.90;;;;;;4927481;29;20046;-86
2024/01/13 02:48:35;;;;;;;19.75;9.52;;;-2.20;99.90;;;;;;4962817;28;20043;-86
2024/01/13 02:51:02;;;;;;;16.40;8.48;;;-2.20;99.90;;;;;;4950080;28;20115;-86
2024/01/13 02:53:28;;;;;;;19.08;8.90;;;-2.20;99.90;;;;;;4948523;28;20668;-86
2024/01/13 02:55:54;;;;;;;19.58;9.40;;;-2.20;99.90;;;;;;4957210;28;20034;-86
2024/01/13 02:58:20;;;;;;;16.95;8.98;;;-2.20;99.90;;;;;;4969309;28;20036;-86
2024/01/13 03:00:45;;;;;;;19.83;10.05;;;-2.20;99.90;;;;;;4922676;29;20419;-85
2024/01/13 03:03:11;;;;;;;19.70;9.27;;;-2.20;99.90;;;;;;4944177;28;20035;-85
2024/01/13 03:05:37;;;;;;;22.08;10.55;;;-2.20;99.90;;;;;;4943192;28;20039;-87
2024/01/13 03:08:03;;;;;;;20.95;10.57;;;-2.20;99.90;;;;;;4924164;29;20065;-87
2024/01/13 03:10:31;;;;;;;20.77;11.00;;;-2.20;99.90;;;;;;4939860;28;20031;-87
2024/01/13 03:12:57;;;;;;;23.95;10.32;;;-2.20;99.90;;;;;;4968402;28;20043;-87
2024/01/13 03:15:23;;;;;;;23.05;10.00;;;-2.20;99.90;;;;;;4942838;28;20034;-87
2024/01/13 03:17:49;;;;;;;17.38;9.13;;;-2.20;99.90;;;;;;4945644;28;20035;-86
2024/01/13 03:20:15;;;;;;;20.50;10.07;;;-2.20;99.90;;;;;;4941217;28;20027;-86
2024/01/13 03:22:40;;;;;;;19.88;10.00;;;-2.20;99.90;;;;;;4959708;28;20105;-86
2024/01/13 03:25:07;;;;;;;21.17;10.43;;;-2.20;99.90;;;;;;4944816;29;20035;-86
2024/01/13 03:27:32;;;;;;;22.13;10.70;;;-2.20;99.90;;;;;;4944175;28;20030;-86
2024/01/13 03:29:58;;;;;;;22.58;10.60;;;-2.20;99.90;;;;;;4961176;28;20078;-86
2024/01/13 03:32:24;;;;;;;22.23;11.57;;;-2.20;99.90;;;;;;4941597;28;20451;-87
2024/01/13 03:34:50;;;;;;;20.30;9.57;;;-2.20;99.90;;;;;;4948869;28;20069;-85
2024/01/13 03:37:16;;;;;;;21.38;9.88;;;-2.20;99.90;;;;;;4963496;28;20464;-87
2024/01/13 03:39:43;;;;;;;20.10;10.27;;;-2.20;99.90;;;;;;4954012;28;20046;-86
2024/01/13 03:42:09;;;;;;;20.45;9.80;;;-2.20;99.90;;;;;;4940855;28;20035;-86
2024/01/13 03:44:35;;;;;;;19.67;10.23;;;-2.20;99.90;;;;;;4930772;28;20061;-86
2024/01/13 03:47:01;;;;;;;20.33;9.82;;;-2.20;99.90;;;;;;4942705;28;20484;-86
2024/01/13 03:49:26;;;;;;;23.77;10.70;;;-2.10;99.90;;;;;;4948556;28;20035;-86
2024/01/13 03:51:52;;;;;;;21.60;10.38;;;-2.20;99.90;;;;;;4959490;28;20065;-87
2024/01/13 03:54:18;;;;;;;23.15;10.88;;;-2.10;99.90;;;;;;4948701;28;20027;-87
2024/01/13 03:56:44;;;;;;;22.23;10.15;;;-2.20;99.90;;;;;;4931833;28;20129;-86
2024/01/13 03:59:12;;;;;;;20.58;10.63;;;-2.20;99.90;;;;;;4949452;28;20038;-86
2024/01/13 04:01:38;;;;;;;22.70;11.13;;;-2.10;99.90;;;;;;4944069;28;20042;-85
2024/01/13 04:04:04;;;;;;;26.20;11.63;;;-2.10;99.90;;;;;;4956352;28;20035;-85
2024/01/13 04:06:30;;;;;;;22.90;11.38;;;-2.20;99.90;;;;;;4949252;28;20070;-85
2024/01/13 04:08:56;;;;;;;22.27;11.05;;;-2.10;99.90;;;;;;4929615;28;20040;-86
2024/01/13 04:11:22;;;;;;;27.17;11.90;;;-2.10;99.90;;;;;;4946641;28;20043;-87
2024/01/13 04:13:48;;;;;;;22.23;11.40;;;-2.10;99.90;;;;;;4968857;28;20031;-87
2024/01/13 04:16:13;;;;;;;28.70;11.63;;;-2.10;99.90;;;;;;4941940;28;20031;-86
2024/01/13 04:18:39;;;;;;;22.38;10.52;;;-2.10;99.90;;;;;;4930382;28;20062;-87
2024/01/13 04:21:05;;;;;;;25.83;11.98;;;-2.20;99.90;;;;;;4941219;29;20036;-86
2024/01/13 04:23:30;;;;;;;25.42;11.65;;;-2.20;99.90;;;;;;4934376;28;20047;-85
2024/01/13 04:25:56;;;;;;;25.20;10.88;;;-2.10;99.90;;;;;;4945165;28;20043;-85
2024/01/13 04:28:22;;;;;;;25.75;11.73;;;-2.10;99.90;;;;;;4943816;28;20035;-85
2024/01/13 04:30:47;;;;;;;27.92;12.00;;;-2.20;99.90;;;;;;4946568;28;20520;-86
2024/01/13 04:33:13;;;;;;;25.70;11.77;;;-2.10;99.90;;;;;;4930300;28;20043;-86
2024/01/13 04:35:40;;;;;;;26.95;11.50;;;-2.10;99.90;;;;;;4942231;29;20027;-86
2024/01/13 04:38:06;;;;;;;26.80;11.23;;;-2.10;99.90;;;;;;4946403;28;20027;-86
2024/01/13 04:40:36;;;;;;;26.95;12.07;;;-2.10;99.90;;;;;;4954194;28;20032;-85
2024/01/13 04:43:05;;;;;;;26.35;10.52;;;-2.10;99.90;;;;;;4945014;29;20043;-86
2024/01/13 04:45:31;;;;;;;28.63;12.38;;;-2.10;99.90;;;;;;4943678;28;20043;-85
2024/01/13 04:47:57;;;;;;;23.02;11.00;;;-2.10;99.90;;;;;;4961476;28;20496;-85
2024/01/13 04:50:23;;;;;;;22.15;10.18;;;-2.10;99.90;;;;;;4959011;28;20076;-85
2024/01/13 04:52:49;;;;;;;27.27;11.23;;;-2.10;99.90;;;;;;4941595;29;20394;-85
2024/01/13 04:55:15;;;;;;;26.75;11.90;;;-2.10;99.90;;;;;;4962609;28;20031;-85
2024/01/13 04:57:40;;;;;;;24.45;11.38;;;-2.10;99.90;;;;;;4950107;28;20499;-86
2024/01/13 05:00:07;;;;;;;26.63;11.38;;;-2.20;99.90;;;;;;4943779;28;20055;-87
2024/01/13 05:02:33;;;;;;;22.33;10.27;;;-2.10;99.90;;;;;;4928011;28;20047;-87
2024/01/13 05:04:59;;;;;;;24.42;11.13;;;-2.10;99.90;;;;;;4958437;28;20043;-87
2024/01/13 05:07:24;;;;;;;23.73;11.20;;;-2.10;99.90;;;;;;4939247;29;20695;-85
2024/01/13 05:09:50;;;;;;;28.48;11.88;;;-2.10;99.90;;;;;;4962396;28;20075;-85
2024/01/13 05:12:16;;;;;;;20.55;10.15;;;-2.10;99.90;;;;;;4926281;28;20035;-85
2024/01/13 05:14:43;;;;;;;27.15;11.52;;;-2.10;99.90;;;;;;4951658;28;20064;-86
2024/01/13 05:17:09;;;;;;;26.67;11.32;;;-2.10;99.90;;;;;;4942314;29;20042;-86
2024/01/13 05:19:35;;;;;;;24.60;11.02;;;-2.00;99.90;;;;;;4950244;28;20045;-85
2024/01/13 05:22:01;;;;;;;22.15;10.38;;;-2.00;99.90;;;;;;4966932;28;20046;-87
2024/01/13 05:24:26;;;;;;;25.88;11.75;;;-2.00;99.90;;;;;;4960379;28;20039;-86
2024/01/13 05:26:52;;;;;;;24.33;9.77;;;-2.00;99.90;;;;;;4962979;28;20039;-86
2024/01/13 05:29:18;;;;;;;21.58;10.13;;;-2.00;99.90;;;;;;4954808;28;20031;-86
2024/01/13 05:31:47;;;;;;;21.95;9.57;;;-2.00;99.90;;;;;;4959772;28;20039;-86
2024/01/13 05:34:12;;;;;;;25.58;11.10;;;-2.00;99.90;;;;;;4949987;28;20043;-86
2024/01/13 05:36:38;;;;;;;23.20;10.43;;;-2.00;99.90;;;;;;4960050;28;20042;-85
2024/01/13 05:39:04;;;;;;;20.98;9.90;;;-2.00;99.90;;;;;;4948168;28;20085;-86
2024/01/13 05:41:30;;;;;;;23.33;10.32;;;-2.00;99.90;;;;;;4943184;29;20023;-86
2024/01/13 05:43:55;;;;;;;21.02;9.45;;;-2.00;99.90;;;;;;4965714;28;20041;-86
2024/01/13 05:46:21;;;;;;;22.45;10.32;;;-2.00;99.90;;;;;;4963442;28;20035;-87
2024/01/13 05:48:47;;;;;;;22.08;9.85;;;-2.00;99.90;;;;;;4968515;28;20569;-86
2024/01/13 05:51:13;;;;;;;20.23;9.98;;;-2.00;99.90;;;;;;4948978;28;20069;-85
2024/01/13 05:53:38;;;;;;;21.98;10.02;;;-2.00;99.90;;;;;;4943989;29;20428;-86
2024/01/13 05:56:06;;;;;;;27.95;11.30;;;-2.00;99.90;;;;;;4940425;28;20039;-85
2024/01/13 05:58:32;;;;;;;19.70;9.57;;;-2.00;99.90;;;;;;4957416;28;20043;-85
2024/01/13 06:00:58;;;;;;;22.75;11.00;;;-2.00;99.90;;;;;;4940140;29;20058;-85
2024/01/13 06:03:24;;;;;;;24.20;10.40;;;-2.00;99.90;;;;;;4941621;29;20070;-86
2024/01/13 06:05:50;;;;;;;20.45;9.98;;;-2.00;99.90;;;;;;4941832;28;20040;-86
2024/01/13 06:08:16;;;;;;;21.00;10.00;;;-2.00;99.90;;;;;;4927895;28;20041;-86
2024/01/13 06:10:41;;;;;;;22.95;10.40;;;-2.00;99.90;;;;;;4941298;29;20031;-87
2024/01/13 06:13:07;;;;;;;20.80;10.15;;;-2.00;99.90;;;;;;4939623;29;20094;-86
2024/01/13 06:15:33;;;;;;;20.08;9.73;;;-2.00;99.90;;;;;;4945497;29;20039;-86
2024/01/13 06:17:59;;;;;;;24.23;9.93;;;-2.00;99.90;;;;;;4923822;28;20165;-86
2024/01/13 06:20:25;;;;;;;20.73;9.55;;;-1.90;99.90;;;;;;4946319;28;20039;-86
2024/01/13 06:22:50;;;;;;;19.80;9.50;;;-1.90;99.90;;;;;;4942055;28;20040;-86
2024/01/13 06:25:17;;;;;;;18.88;8.82;;;-1.90;99.90;;;;;;4952510;28;20395;-86
2024/01/13 06:27:43;;;;;;;21.65;8.52;;;-1.90;99.90;;;;;;4937109;28;20043;-86
2024/01/13 06:30:10;;;;;;;19.02;9.20;;;-1.80;99.90;;;;;;4940380;28;20030;-86
2024/01/13 06:32:37;;;;;;;18.23;7.95;;;-1.80;99.90;;;;;;4944633;28;20380;-87
2024/01/13 06:35:03;;;;;;;14.60;7.25;;;-1.90;99.90;;;;;;4924530;28;20112;-86
2024/01/13 06:37:29;;;;;;;18.60;7.97;;;-1.90;99.90;;;;;;4946400;28;20031;-87
2024/01/13 06:39:54;;;;;;;12.88;6.90;;;-1.90;99.90;;;;;;4962938;28;20029;-85
2024/01/13 06:42:20;;;;;;;14.70;7.05;;;-1.90;99.90;;;;;;4944764;28;20053;-86
2024/01/13 06:44:46;;;;;;;16.92;6.95;;;-1.90;99.90;;;;;;4927212;28;20031;-85
2024/01/13 06:47:15;;;;;;;13.82;6.15;;;-1.90;99.90;;;;;;4937329;28;20035;-86
2024/01/13 06:49:40;;;;;;;12.80;6.60;;;-1.90;99.90;;;;;;4927694;28;20031;-86
2024/01/13 06:52:09;;;;;;;10.43;5.93;;;-1.90;99.90;;;;;;4941373;29;20054;-86
2024/01/13 06:54:35;;;;;;;14.13;6.45;;;-1.90;99.90;;;;;;4937501;28;20325;-87
2024/01/13 06:57:01;;;;;;;13.65;6.15;;;-1.90;99.90;;;;;;4952452;28;20069;-87
2024/01/13 06:59:27;;;;;;;13.35;6.82;;;-1.80;99.90;;;;;;4947744;29;20122;-86
2024/01/13 07:01:53;;;;;;;13.82;6.20;;;-1.80;99.90;;;;;;4957185;28;20043;-87
2024/01/13 07:04:19;;;;;;;14.27;6.07;;;-1.80;99.90;;;;;;4961069;28;20061;-87
2024/01/13 07:06:45;;;;;;;12.95;5.47;;;-1.80;99.90;;;;;;4944600;28;20165;-86
2024/01/13 07:09:10;;;;;;;10.98;5.20;;;-1.80;99.90;;;;;;4945554;28;20031;-87
2024/01/13 07:11:36;;;;;;;11.75;5.22;;;-1.80;99.90;;;;;;4943358;28;20444;-87
2024/01/13 07:14:02;;;;;;;10.15;5.07;;;-1.80;99.90;;;;;;4928238;28;20035;-87
2024/01/13 07:16:28;;;;;;;11.23;5.50;;;-1.80;99.90;;;;;;4941932;28;20039;-86
2024/01/13 07:18:54;;;;;;;11.73;5.40;;;-1.80;99.90;;;;;;4961847;28;20115;-85
2024/01/13 07:21:20;;;;;;;9.48;5.00;;;-1.80;99.90;;;;;;4942330;28;20058;-85
2024/01/13 07:23:46;;;;;;;10.15;5.18;;;-1.80;99.90;;;;;;4931847;28;20041;-86
2024/01/13 07:26:12;;;;;;;9.20;4.95;;;-1.80;99.90;;;;;;4961716;28;20030;-85
2024/01/13 07:28:37;;;;;;;8.93;4.65;;;-1.80;99.90;;;;;;4944216;28;20046;-86
2024/01/13 07:31:03;;;;;;;12.50;5.57;;;-1.90;99.90;;;;;;4955002;28;20050;-86
2024/01/13 07:33:29;;;;;;;8.77;4.82;;;-1.90;99.90;;;;;;4965319;28;20035;-86
2024/01/13 07:35:55;;;;;;;9.77;5.03;;;-1.90;99.90;;;;;;4948762;28;20035;-87
2024/01/13 07:38:21;;;;;;;7.47;4.15;;;-1.90;99.90;;;;;;4964550;28;20061;-85
2024/01/13 07:40:46;;;;;;;9.20;4.63;;;-1.90;99.90;;;;;;4946565;28;20031;-85
2024/01/13 07:43:12;;;;;;;7.88;3.97;;;-1.80;99.90;;;;;;4944536;28;20504;-85
2024/01/13 07:45:38;;;;;;;11.05;5.45;;;-1.80;99.90;;;;;;4943482;28;20039;-85
2024/01/13 07:48:04;;;;;;;9.55;5.15;;;-1.70;99.90;;;;;;4942820;28;20130;-86
2024/01/13 07:50:30;;;;;;;9.35;5.20;;;-1.70;99.90;;;;;;4935918;28;20448;-86
2024/01/13 07:52:56;;;;;;;10.48;5.22;;;-1.80;99.90;;;;;;4958573;28;20126;-85
2024/01/13 07:55:22;;;;;;;7.45;4.25;;;-1.80;99.90;;;;;;4948453;28;20066;-87
2024/01/13 07:57:47;;;;;;;10.00;4.88;;;-1.80;99.90;;;;;;4945201;28;20042;-87
2024/01/13 08:00:13;;;;;;;7.43;4.68;;;-1.70;99.90;;;;;;4944472;28;20114;-85
2024/01/13 08:02:39;;;;;;;7.57;4.20;;;-1.80;99.90;;;;;;4935021;28;20582;-85
2024/01/13 08:05:05;;;;;;;6.85;3.90;;;-1.80;99.90;;;;;;4930620;28;20126;-86
2024/01/13 08:07:31;;;;;;;8.68;4.20;;;-1.80;99.90;;;;;;4938578;28;20812;-85
2024/01/13 08:09:57;;;;;;;10.27;4.60;;;-1.80;99.90;;;;;;4962862;28;20039;-86
2024/01/13 08:12:23;;;;;;;8.13;4.50;;;-1.80;99.90;;;;;;4922313;28;20035;-87
2024/01/13 08:14:49;;;;;;;7.38;3.92;;;-1.70;99.90;;;;;;4946467;28;20122;-87
2024/01/13 08:17:14;;;;;;;8.18;3.85;;;-1.70;99.90;;;;;;4936696;28;20106;-87
2024/01/13 08:19:40;;;;;;;9.48;4.72;;;-1.70;99.90;;;;;;4947751;28;20372;-87
2024/01/13 08:22:06;;;;;;;6.47;4.15;;;-1.70;99.90;;;;;;4944791;28;20042;-86
2024/01/13 08:24:32;;;;;;;8.57;4.20;;;-1.60;99.90;;;;;;4966981;28;20046;-85
2024/01/13 08:26:58;;;;;;;8.07;3.92;;;-1.60;99.90;;;;;;4944304;28;20035;-85
2024/01/13 08:29:23;;;;;;;7.32;4.20;;;-1.60;99.90;;;;;;4936389;28;20121;-85
2024/01/13 08:31:50;;;;;;;7.82;4.95;;;-1.70;99.90;;;;;;4965536;28;20127;-86
2024/01/13 08:34:16;;;;;;;9.30;4.05;;;-1.60;99.90;;;;;;4946115;28;20034;-87
2024/01/13 08:36:43;;;;;;;7.05;4.13;;;-1.60;99.90;;;;;;4934661;28;20030;-87
2024/01/13 08:39:09;;;;;;;7.55;4.15;;;-1.60;99.90;;;;;;4941897;28;20031;-86
2024/01/13 08:41:35;;;;;;;7.82;4.38;;;-1.60;99.90;;;;;;4949677;28;20039;-85
2024/01/13 08:44:02;;;;;;;7.72;4.40;;;-1.50;99.90;;;;;;4961822;28;20110;-85
2024/01/13 08:46:28;;;;;;;10.07;4.20;;;-1.60;99.90;;;;;;4948085;28;20086;-85
2024/01/13 08:48:53;;;;;;;7.72;3.85;;;-1.60;99.90;;;;;;4949821;28;20034;-85
2024/01/13 08:51:19;;;;;;;8.55;4.05;;;-1.60;99.90;;;;;;4963874;28;20047;-85
2024/01/13 08:53:45;;;;;;;7.38;4.90;;;-1.60;99.90;;;;;;4945648;28;20034;-85
2024/01/13 08:56:12;;;;;;;8.77;4.70;;;-1.60;99.90;;;;;;4964066;28;20106;-86
2024/01/13 08:58:38;;;;;;;6.70;4.00;;;-1.50;99.90;;;;;;4958529;28;20826;-85
2024/01/13 09:01:04;;;;;;;6.90;4.10;;;-1.50;99.90;;;;;;4948307;28;20133;-86
2024/01/13 09:03:30;;;;;;;6.72;4.05;;;-1.50;99.90;;;;;;4951012;28;20031;-86
2024/01/13 09:05:56;;;;;;;8.23;4.47;;;-1.50;99.90;;;;;;4948907;28;20094;-86
2024/01/13 09:08:22;;;;;;;7.43;4.05;;;-1.50;99.90;;;;;;4944559;28;20031;-85
2024/01/13 09:10:48;;;;;;;7.47;4.97;;;-1.50;99.90;;;;;;4932705;28;20707;-86
2024/01/13 09:13:14;;;;;;;7.75;4.28;;;-1.50;99.90;;;;;;4932626;29;20080;-85
2024/01/13 09:15:39;;;;;;;9.27;5.05;;;-1.60;99.90;;;;;;4941871;29;20034;-85
2024/01/13 09:18:06;;;;;;;7.72;4.32;;;-1.50;99.90;;;;;;4946577;28;20027;-85
2024/01/13 09:20:32;;;;;;;10.25;4.50;;;-1.50;99.90;;;;;;4950855;28;20521;-86
2024/01/13 09:22:58;;;;;;;7.45;4.10;;;-1.50;99.90;;;;;;4956973;28;20035;-87
2024/01/13 09:25:24;;;;;;;9.32;5.10;;;-1.60;99.90;;;;;;4946464;28;20023;-85
2024/01/13 09:27:51;;;;;;;8.10;4.47;;;-1.60;99.90;;;;;;4950924;28;20503;-86
2024/01/13 09:30:17;;;;;;;10.05;5.03;;;-1.50;99.90;;;;;;4963684;28;20561;-85
2024/01/13 09:32:43;;;;;;;9.10;4.47;;;-1.50;99.90;;;;;;4933587;28;20038;-85
2024/01/13 09:35:09;;;;;;;7.25;4.47;;;-1.50;99.90;;;;;;4942696;28;20027;-85
2024/01/13 09:37:35;;;;;;;8.70;4.85;;;-1.50;99.90;;;;;;4927739;28;20102;-86
2024/01/13 09:40:01;;;;;;;9.23;4.65;;;-1.50;99.90;;;;;;4945320;28;20039;-86
2024/01/13 09:42:58;;;;;;;8.23;4.60;;;-1.50;99.90;;;;;;4944025;28;20031;-85
2024/01/13 09:45:24;;;;;;;9.05;5.22;;;-1.50;99.90;;;;;;4959568;28;20377;-86
2024/01/13 09:47:50;;;;;;;9.80;5.70;;;-1.50;99.90;;;;;;4950014;28;20035;-85
2024/01/13 09:50:16;;;;;;;9.52;5.10;;;-1.50;99.90;;;;;;4947785;28;20027;-85
2024/01/13 09:52:44;;;;;;;10.15;5.47;;;-1.50;99.90;;;;;;4955295;28;20045;-86
2024/01/13 09:55:14;;;;;;;10.63;5.35;;;-1.40;99.90;;;;;;4931208;28;20027;-87
2024/01/13 09:57:41;;;;;;;9.38;4.78;;;-1.40;99.90;;;;;;4942728;28;20026;-86
2024/01/13 10:00:08;;;;;;;10.85;6.22;;;-1.40;99.90;;;;;;4968748;28;20118;-85
2024/01/13 10:02:34;;;;;;;10.23;5.50;;;-1.40;99.90;;;;;;4947955;28;20082;-86
2024/01/13 10:04:59;;;;;;;9.48;5.30;;;-1.40;99.90;;;;;;4965293;28;20455;-86
2024/01/13 10:07:27;;;;;;;11.20;5.70;;;-1.40;99.90;;;;;;4942578;28;20043;-85
2024/01/13 10:09:53;;;;;;;13.35;5.28;;;-1.40;99.90;;;;;;4950996;28;20027;-85
2024/01/13 10:12:19;;;;;;;10.15;5.88;;;-1.40;99.90;;;;;;4950918;28;20177;-85
2024/01/13 10:14:44;;;;;;;9.50;5.25;;;-1.50;99.90;;;;;;4934068;28;20035;-86
2024/01/13 10:17:11;;;;;;;12.55;6.50;;;-1.50;99.90;;;;;;4938668;28;20122;-87
2024/01/13 10:19:41;;;;;;;9.52;5.25;;;-1.40;99.90;;;;;;4949586;28;20648;-86
2024/01/13 10:22:08;;;;;;;12.45;6.30;;;-1.40;99.90;;;;;;4946173;29;20503;-84
2024/01/13 10:24:34;;;;;;;9.43;5.43;;;-1.40;99.90;;;;;;4944822;28;20034;-86
2024/01/13 10:27:00;;;;;;;10.32;6.05;;;-1.40;99.90;;;;;;4960214;28;20046;-86
2024/01/13 10:29:26;;;;;;;10.60;5.78;;;-1.40;99.90;;;;;;4951817;28;20039;-85
2024/01/13 10:31:52;;;;;;;12.82;5.93;;;-1.50;99.90;;;;;;4965066;28;20041;-85
2024/01/13 10:34:19;;;;;;;10.45;5.82;;;-1.40;99.90;;;;;;4948281;28;20027;-85
2024/01/13 10:36:45;;;;;;;13.13;6.18;;;-1.40;99.90;;;;;;4968127;28;20448;-86
2024/01/13 10:39:11;;;;;;;10.85;5.95;;;-1.40;99.90;;;;;;4927493;28;20019;-87
2024/01/13 10:41:42;;;;;;;11.93;6.13;;;-1.40;99.90;;;;;;4952617;28;20561;-87
2024/01/13 10:44:09;;;;;;;11.52;6.50;;;-1.50;99.90;;;;;;4953906;28;20024;-86
2024/01/13 10:46:41;;;;;;;11.48;5.80;;;-1.40;99.90;;;;;;4947092;28;20488;-85
2024/01/13 10:49:15;;;;;;;12.07;6.35;;;-1.50;99.90;;;;;;4965306;28;20031;-85
2024/01/13 10:51:57;;;;;;;11.85;6.53;;;-1.50;99.90;;;;;;4934169;28;20125;-85
2024/01/13 10:54:26;;;;;;;11.02;6.10;;;-1.50;99.90;;;;;;4965681;28;20050;-85
2024/01/13 10:56:53;;;;;;;11.43;5.97;;;-1.40;99.90;;;;;;4943929;28;20399;-85
2024/01/13 10:59:19;;;;;;;11.73;6.00;;;-1.40;99.90;;;;;;4960175;28;20023;-86
2024/01/13 11:01:47;;;;;;;11.25;6.18;;;-1.40;99.90;;;;;;4960821;28;20081;-86
2024/01/13 11:04:14;;;;;;;13.93;6.63;;;-1.50;99.90;;;;;;4949405;28;20026;-86
2024/01/13 11:06:41;;;;;;;9.48;6.00;;;-1.40;99.90;;;;;;4950366;28;20492;-87
2024/01/13 11:09:11;;;;;;;11.70;6.15;;;-1.40;99.90;;;;;;4959379;28;20035;-85
2024/01/13 11:11:42;;;;;;;11.60;6.13;;;-1.30;99.90;;;;;;4932183;29;20063;-86
2024/01/13 11:14:31;;;;;;;12.70;5.55;;;-1.40;99.90;;;;;;4957971;28;20039;-86
2024/01/13 11:16:58;;;;;;;11.23;6.38;;;-1.30;99.90;;;;;;4956892;28;20037;-86
2024/01/13 11:19:24;;;;;;;12.88;6.07;;;-1.30;99.90;;;;;;4925960;28;20032;-84
2024/01/13 11:21:51;;;;;;;12.13;6.60;;;-1.30;99.90;;;;;;4934878;28;20444;-87
2024/01/13 11:24:19;;;;;;;15.75;7.57;;;-1.30;99.90;;;;;;4948470;28;20027;-87
2024/01/13 11:26:49;;;;;;;14.25;7.40;;;-1.40;99.90;;;;;;4939949;28;20030;-86
2024/01/13 11:29:21;;;;;;;12.52;7.10;;;-1.40;99.90;;;;;;4927253;28;20398;-86
2024/01/13 11:31:53;;;;;;;12.18;6.88;;;-1.30;99.90;;;;;;4947863;28;20035;-85
2024/01/13 11:34:19;;;;;;;13.10;6.85;;;-1.30;99.90;;;;;;4957080;28;20026;-85
2024/01/13 11:36:50;;;;;;;13.63;6.00;;;-1.30;99.90;;;;;;4930885;28;20046;-86
2024/01/13 11:39:17;;;;;;;12.45;6.88;;;-1.30;99.90;;;;;;4965340;28;20055;-86
2024/01/13 11:41:53;;;;;;;15.93;7.50;;;-1.30;99.90;;;;;;4966948;28;20082;-85
2024/01/13 11:44:34;;;;;;;15.52;7.63;;;-1.30;99.90;;;;;;4947859;28;20122;-85
2024/01/13 11:47:05;;;;;;;14.55;6.85;;;-1.40;99.90;;;;;;4952547;28;20127;-85
2024/01/13 11:49:35;;;;;;;15.68;7.80;;;-1.40;99.90;;;;;;4953816;28;20094;-85
2024/01/13 11:52:03;;;;;;;14.00;6.97;;;-1.40;99.90;;;;;;4938558;28;20031;-86
2024/01/13 11:54:30;;;;;;;13.13;6.70;;;-1.40;99.90;;;;;;4961137;28;20030;-86
2024/01/13 11:56:58;;;;;;;15.68;7.63;;;-1.40;99.90;;;;;;4964691;28;20093;-86
2024/01/13 11:59:24;;;;;;;14.38;7.43;;;-1.40;99.90;;;;;;4943637;28;20140;-86
2024/01/13 12:01:52;;;;;;;14.57;7.22;;;-1.40;99.90;;;;;;4962823;28;20484;-86
2024/01/13 12:04:18;;;;;;;14.40;7.55;;;-1.40;99.90;;;;;;4930447;28;20035;-86
2024/01/13 12:06:46;;;;;;;12.57;7.05;;;-1.40;99.90;;;;;;4955610;28;20035;-86
2024/01/13 12:09:14;;;;;;;13.25;6.95;;;-1.40;99.90;;;;;;4958413;28;20054;-85
2024/01/13 12:11:40;;;;;;;13.85;7.03;;;-1.30;99.90;;;;;;4940449;29;20032;-85
2024/01/13 12:14:06;;;;;;;13.80;7.47;;;-1.30;99.90;;;;;;4965177;28;20102;-85
2024/01/13 12:16:33;;;;;;;12.27;6.75;;;-1.30;99.90;;;;;;4939702;28;20031;-84
2024/01/13 12:18:59;;;;;;;16.13;8.30;;;-1.30;99.90;;;;;;4921033;28;20034;-87
2024/01/13 12:21:25;;;;;;;13.40;7.22;;;-1.30;99.90;;;;;;4933392;28;20027;-85
2024/01/13 12:23:51;;;;;;;14.93;7.53;;;-1.30;99.90;;;;;;4962369;28;20061;-85
2024/01/13 12:26:16;;;;;;;15.32;8.10;;;-1.30;99.90;;;;;;4961757;28;20063;-85
2024/01/13 12:28:43;;;;;;;16.13;8.50;;;-1.20;99.90;;;;;;4944894;28;20035;-85
2024/01/13 12:31:10;;;;;;;14.25;7.05;;;-1.10;99.90;;;;;;4960554;28;20026;-85